sim
Sign-in with your pilot id or email,
or register
Callsign
Passwort

Schedule Details

Flight Number: OEO8867
Departure: Belfast International Airport (EGAA) at 12:00
Arrival: Munich Airport (EDDM) at 14:25

Weather Information
Getting current METAR information for EGAA 221250Z 22013KT 190V250 9999 BKN024 15/11 Q1001
Getting current METAR information for EDDM 221250Z 05004KT 010V140 9999 FEW038 24/14 Q1012 NOSIG

Schedule Frequency

Route Map